sensor_id;sensor_type;location;lat;lon;timestamp;P1;durP1;ratioP1;P2;durP2;ratioP2
13331;SDS011;6735;51.456;12.626;2023-04-03T00:00:12;4.23;;;2.70;;
13331;SDS011;6735;51.456;12.626;2023-04-03T00:02:38;8.80;;;3.67;;
13331;SDS011;6735;51.456;12.626;2023-04-03T00:05:05;8.37;;;3.10;;
13331;SDS011;6735;51.456;12.626;2023-04-03T00:07:31;8.80;;;3.97;;
13331;SDS011;6735;51.456;12.626;2023-04-03T00:09:57;10.57;;;3.87;;
13331;SDS011;6735;51.456;12.626;2023-04-03T00:12:22;8.43;;;2.90;;
13331;SDS011;6735;51.456;12.626;2023-04-03T00:14:47;10.50;;;3.77;;
13331;SDS011;6735;51.456;12.626;2023-04-03T00:17:13;7.93;;;3.53;;
13331;SDS011;6735;51.456;12.626;2023-04-03T00:19:38;6.83;;;3.63;;
13331;SDS011;6735;51.456;12.626;2023-04-03T00:22:04;4.80;;;2.90;;
13331;SDS011;6735;51.456;12.626;2023-04-03T00:24:29;7.40;;;3.10;;
13331;SDS011;6735;51.456;12.626;2023-04-03T00:26:55;5.33;;;2.73;;
13331;SDS011;6735;51.456;12.626;2023-04-03T00:29:20;6.47;;;2.67;;
13331;SDS011;6735;51.456;12.626;2023-04-03T00:31:46;6.43;;;2.90;;
13331;SDS011;6735;51.456;12.626;2023-04-03T00:34:11;5.43;;;2.57;;
13331;SDS011;6735;51.456;12.626;2023-04-03T00:36:37;5.10;;;2.90;;
13331;SDS011;6735;51.456;12.626;2023-04-03T00:39:02;5.33;;;2.43;;
13331;SDS011;6735;51.456;12.626;2023-04-03T00:41:28;4.40;;;2.80;;
13331;SDS011;6735;51.456;12.626;2023-04-03T00:43:53;5.57;;;2.50;;
13331;SDS011;6735;51.456;12.626;2023-04-03T00:46:19;3.37;;;2.30;;
13331;SDS011;6735;51.456;12.626;2023-04-03T00:48:45;4.63;;;2.47;;
13331;SDS011;6735;51.456;12.626;2023-04-03T00:51:22;4.60;;;2.70;;
13331;SDS011;6735;51.456;12.626;2023-04-03T00:53:50;5.50;;;2.90;;
13331;SDS011;6735;51.456;12.626;2023-04-03T00:56:23;4.43;;;2.50;;
13331;SDS011;6735;51.456;12.626;2023-04-03T00:58:53;4.57;;;2.40;;
13331;SDS011;6735;51.456;12.626;2023-04-03T01:01:23;6.37;;;3.03;;
13331;SDS011;6735;51.456;12.626;2023-04-03T01:03:50;7.53;;;2.60;;
13331;SDS011;6735;51.456;12.626;2023-04-03T01:06:16;4.17;;;2.63;;
13331;SDS011;6735;51.456;12.626;2023-04-03T01:08:45;5.23;;;2.50;;
13331;SDS011;6735;51.456;12.626;2023-04-03T01:11:14;5.87;;;2.60;;
13331;SDS011;6735;51.456;12.626;2023-04-03T01:13:40;4.60;;;2.60;;
13331;SDS011;6735;51.456;12.626;2023-04-03T01:16:05;7.43;;;3.57;;
13331;SDS011;6735;51.456;12.626;2023-04-03T01:18:31;5.53;;;2.67;;
13331;SDS011;6735;51.456;12.626;2023-04-03T01:23:52;4.07;;;2.60;;
13331;SDS011;6735;51.456;12.626;2023-04-03T01:26:29;5.57;;;2.37;;
13331;SDS011;6735;51.456;12.626;2023-04-03T01:28:55;4.87;;;2.60;;
13331;SDS011;6735;51.456;12.626;2023-04-03T01:34:09;6.40;;;2.60;;
13331;SDS011;6735;51.456;12.626;2023-04-03T01:36:35;5.03;;;2.80;;
13331;SDS011;6735;51.456;12.626;2023-04-03T01:39:00;4.47;;;2.63;;
13331;SDS011;6735;51.456;12.626;2023-04-03T01:41:26;3.50;;;2.60;;
13331;SDS011;6735;51.456;12.626;2023-04-03T01:43:52;3.50;;;2.47;;
13331;SDS011;6735;51.456;12.626;2023-04-03T01:46:18;4.20;;;2.40;;
13331;SDS011;6735;51.456;12.626;2023-04-03T01:48:44;3.90;;;2.20;;
13331;SDS011;6735;51.456;12.626;2023-04-03T01:51:10;4.33;;;2.50;;
13331;SDS011;6735;51.456;12.626;2023-04-03T01:53:36;3.40;;;2.50;;
13331;SDS011;6735;51.456;12.626;2023-04-03T01:56:01;3.67;;;2.40;;
13331;SDS011;6735;51.456;12.626;2023-04-03T01:58:27;5.30;;;2.33;;
13331;SDS011;6735;51.456;12.626;2023-04-03T02:00:52;5.47;;;2.77;;
13331;SDS011;6735;51.456;12.626;2023-04-03T02:03:18;6.13;;;2.70;;
13331;SDS011;6735;51.456;12.626;2023-04-03T02:05:43;6.37;;;2.90;;
13331;SDS011;6735;51.456;12.626;2023-04-03T02:08:09;3.67;;;2.50;;
13331;SDS011;6735;51.456;12.626;2023-04-03T02:10:35;6.10;;;2.80;;
13331;SDS011;6735;51.456;12.626;2023-04-03T02:13:01;4.93;;;2.90;;
13331;SDS011;6735;51.456;12.626;2023-04-03T02:15:26;6.77;;;2.50;;
13331;SDS011;6735;51.456;12.626;2023-04-03T02:17:52;7.00;;;3.20;;
13331;SDS011;6735;51.456;12.626;2023-04-03T02:20:17;7.17;;;3.40;;
13331;SDS011;6735;51.456;12.626;2023-04-03T02:22:43;6.73;;;2.93;;
13331;SDS011;6735;51.456;12.626;2023-04-03T02:25:09;4.17;;;2.80;;
13331;SDS011;6735;51.456;12.626;2023-04-03T02:27:35;5.53;;;2.97;;
13331;SDS011;6735;51.456;12.626;2023-04-03T02:30:01;5.27;;;3.03;;
13331;SDS011;6735;51.456;12.626;2023-04-03T02:32:26;7.47;;;2.83;;
13331;SDS011;6735;51.456;12.626;2023-04-03T02:34:52;4.83;;;2.53;;
13331;SDS011;6735;51.456;12.626;2023-04-03T02:37:17;5.73;;;2.77;;
13331;SDS011;6735;51.456;12.626;2023-04-03T02:39:43;3.23;;;2.33;;
13331;SDS011;6735;51.456;12.626;2023-04-03T02:42:08;5.33;;;2.97;;
13331;SDS011;6735;51.456;12.626;2023-04-03T02:44:34;7.07;;;2.53;;
13331;SDS011;6735;51.456;12.626;2023-04-03T02:47:00;9.60;;;3.23;;
13331;SDS011;6735;51.456;12.626;2023-04-03T02:49:25;4.87;;;2.80;;
13331;SDS011;6735;51.456;12.626;2023-04-03T02:51:51;5.90;;;2.80;;
13331;SDS011;6735;51.456;12.626;2023-04-03T02:54:16;8.97;;;2.87;;
13331;SDS011;6735;51.456;12.626;2023-04-03T02:56:42;7.30;;;2.73;;
13331;SDS011;6735;51.456;12.626;2023-04-03T02:59:07;6.57;;;2.60;;
13331;SDS011;6735;51.456;12.626;2023-04-03T03:01:33;10.53;;;3.03;;
13331;SDS011;6735;51.456;12.626;2023-04-03T03:03:59;6.07;;;2.77;;
13331;SDS011;6735;51.456;12.626;2023-04-03T03:06:25;6.57;;;2.73;;
13331;SDS011;6735;51.456;12.626;2023-04-03T03:08:50;4.33;;;2.53;;
13331;SDS011;6735;51.456;12.626;2023-04-03T03:11:16;6.10;;;3.00;;
13331;SDS011;6735;51.456;12.626;2023-04-03T03:13:42;5.53;;;2.50;;
13331;SDS011;6735;51.456;12.626;2023-04-03T03:16:07;5.47;;;2.70;;
13331;SDS011;6735;51.456;12.626;2023-04-03T03:18:33;8.17;;;2.90;;
13331;SDS011;6735;51.456;12.626;2023-04-03T03:20:59;6.07;;;2.60;;
13331;SDS011;6735;51.456;12.626;2023-04-03T03:23:27;8.37;;;3.37;;
13331;SDS011;6735;51.456;12.626;2023-04-03T03:25:54;4.27;;;2.60;;
13331;SDS011;6735;51.456;12.626;2023-04-03T03:28:21;6.37;;;2.87;;
13331;SDS011;6735;51.456;12.626;2023-04-03T03:30:46;5.10;;;2.70;;
13331;SDS011;6735;51.456;12.626;2023-04-03T03:33:12;7.33;;;2.70;;
13331;SDS011;6735;51.456;12.626;2023-04-03T03:35:37;6.30;;;2.97;;
13331;SDS011;6735;51.456;12.626;2023-04-03T03:38:03;8.23;;;3.17;;
13331;SDS011;6735;51.456;12.626;2023-04-03T03:40:28;8.27;;;4.00;;
13331;SDS011;6735;51.456;12.626;2023-04-03T03:42:54;9.90;;;6.77;;
13331;SDS011;6735;51.456;12.626;2023-04-03T03:45:19;9.90;;;5.00;;
13331;SDS011;6735;51.456;12.626;2023-04-03T03:47:45;7.63;;;4.37;;
13331;SDS011;6735;51.456;12.626;2023-04-03T03:50:10;4.80;;;3.10;;
13331;SDS011;6735;51.456;12.626;2023-04-03T03:52:36;7.10;;;3.47;;
13331;SDS011;6735;51.456;12.626;2023-04-03T03:55:02;6.10;;;3.37;;
13331;SDS011;6735;51.456;12.626;2023-04-03T03:57:27;4.33;;;3.07;;
13331;SDS011;6735;51.456;12.626;2023-04-03T03:59:53;6.33;;;3.17;;
13331;SDS011;6735;51.456;12.626;2023-04-03T04:02:19;4.17;;;2.60;;
13331;SDS011;6735;51.456;12.626;2023-04-03T04:04:44;7.00;;;3.03;;
13331;SDS011;6735;51.456;12.626;2023-04-03T04:07:10;8.33;;;3.23;;
13331;SDS011;6735;51.456;12.626;2023-04-03T04:09:36;4.10;;;2.77;;
13331;SDS011;6735;51.456;12.626;2023-04-03T04:12:01;7.00;;;2.73;;
13331;SDS011;6735;51.456;12.626;2023-04-03T04:14:27;5.47;;;2.83;;
13331;SDS011;6735;51.456;12.626;2023-04-03T04:16:52;6.57;;;3.20;;
13331;SDS011;6735;51.456;12.626;2023-04-03T04:19:18;11.67;;;4.13;;
13331;SDS011;6735;51.456;12.626;2023-04-03T04:21:43;12.67;;;6.23;;
13331;SDS011;6735;51.456;12.626;2023-04-03T04:24:09;16.93;;;8.13;;
13331;SDS011;6735;51.456;12.626;2023-04-03T04:26:35;15.77;;;8.90;;
13331;SDS011;6735;51.456;12.626;2023-04-03T04:29:00;11.63;;;6.27;;
13331;SDS011;6735;51.456;12.626;2023-04-03T04:31:26;9.50;;;5.50;;
13331;SDS011;6735;51.456;12.626;2023-04-03T04:33:52;11.27;;;6.77;;
13331;SDS011;6735;51.456;12.626;2023-04-03T04:36:17;16.17;;;9.63;;
13331;SDS011;6735;51.456;12.626;2023-04-03T04:38:43;13.60;;;8.67;;
13331;SDS011;6735;51.456;12.626;2023-04-03T04:41:09;12.23;;;8.80;;
13331;SDS011;6735;51.456;12.626;2023-04-03T04:43:35;12.47;;;7.27;;
13331;SDS011;6735;51.456;12.626;2023-04-03T04:46:08;9.40;;;6.07;;
13331;SDS011;6735;51.456;12.626;2023-04-03T04:48:36;8.33;;;5.70;;
13331;SDS011;6735;51.456;12.626;2023-04-03T04:51:02;8.83;;;5.10;;
13331;SDS011;6735;51.456;12.626;2023-04-03T04:53:28;9.27;;;5.37;;
13331;SDS011;6735;51.456;12.626;2023-04-03T04:55:53;8.00;;;5.20;;
13331;SDS011;6735;51.456;12.626;2023-04-03T04:58:19;4.40;;;3.90;;
13331;SDS011;6735;51.456;12.626;2023-04-03T05:00:45;8.53;;;3.60;;
13331;SDS011;6735;51.456;12.626;2023-04-03T05:03:11;5.33;;;3.33;;
13331;SDS011;6735;51.456;12.626;2023-04-03T05:05:37;6.03;;;3.60;;
13331;SDS011;6735;51.456;12.626;2023-04-03T05:08:03;7.00;;;4.77;;
13331;SDS011;6735;51.456;12.626;2023-04-03T05:10:29;10.60;;;5.13;;
13331;SDS011;6735;51.456;12.626;2023-04-03T05:12:56;11.80;;;5.87;;
13331;SDS011;6735;51.456;12.626;2023-04-03T05:15:21;8.13;;;4.70;;
13331;SDS011;6735;51.456;12.626;2023-04-03T05:17:47;9.07;;;4.20;;
13331;SDS011;6735;51.456;12.626;2023-04-03T05:20:12;5.60;;;3.70;;
13331;SDS011;6735;51.456;12.626;2023-04-03T05:22:38;6.03;;;3.70;;
13331;SDS011;6735;51.456;12.626;2023-04-03T05:25:04;5.40;;;3.30;;
13331;SDS011;6735;51.456;12.626;2023-04-03T05:27:30;7.13;;;3.87;;
13331;SDS011;6735;51.456;12.626;2023-04-03T05:29:56;6.17;;;3.13;;
13331;SDS011;6735;51.456;12.626;2023-04-03T05:32:23;5.83;;;3.13;;
13331;SDS011;6735;51.456;12.626;2023-04-03T05:34:49;6.90;;;2.70;;
13331;SDS011;6735;51.456;12.626;2023-04-03T05:37:15;8.13;;;3.00;;
13331;SDS011;6735;51.456;12.626;2023-04-03T05:39:41;7.57;;;3.90;;
13331;SDS011;6735;51.456;12.626;2023-04-03T05:42:07;7.10;;;4.43;;
13331;SDS011;6735;51.456;12.626;2023-04-03T05:44:32;8.30;;;3.63;;
13331;SDS011;6735;51.456;12.626;2023-04-03T05:46:58;3.67;;;2.70;;
13331;SDS011;6735;51.456;12.626;2023-04-03T05:49:23;6.47;;;3.23;;
13331;SDS011;6735;51.456;12.626;2023-04-03T05:51:49;5.43;;;3.40;;
13331;SDS011;6735;51.456;12.626;2023-04-03T05:54:34;8.87;;;4.83;;
13331;SDS011;6735;51.456;12.626;2023-04-03T05:56:59;9.83;;;5.07;;
13331;SDS011;6735;51.456;12.626;2023-04-03T05:59:25;7.63;;;5.30;;
13331;SDS011;6735;51.456;12.626;2023-04-03T06:01:51;5.73;;;3.00;;
13331;SDS011;6735;51.456;12.626;2023-04-03T06:04:17;7.63;;;3.20;;
13331;SDS011;6735;51.456;12.626;2023-04-03T06:06:48;3.63;;;2.40;;
13331;SDS011;6735;51.456;12.626;2023-04-03T06:09:19;3.23;;;2.40;;
13331;SDS011;6735;51.456;12.626;2023-04-03T06:11:45;4.30;;;2.30;;
13331;SDS011;6735;51.456;12.626;2023-04-03T06:14:11;4.00;;;2.50;;
13331;SDS011;6735;51.456;12.626;2023-04-03T06:16:37;6.80;;;2.73;;
13331;SDS011;6735;51.456;12.626;2023-04-03T06:19:03;5.37;;;2.47;;
13331;SDS011;6735;51.456;12.626;2023-04-03T06:21:30;4.37;;;2.27;;
13331;SDS011;6735;51.456;12.626;2023-04-03T06:23:56;4.10;;;2.30;;
13331;SDS011;6735;51.456;12.626;2023-04-03T06:26:21;4.67;;;2.77;;
13331;SDS011;6735;51.456;12.626;2023-04-03T06:28:47;4.77;;;2.20;;
13331;SDS011;6735;51.456;12.626;2023-04-03T06:31:13;5.43;;;2.50;;
13331;SDS011;6735;51.456;12.626;2023-04-03T06:33:38;5.30;;;2.33;;
13331;SDS011;6735;51.456;12.626;2023-04-03T06:36:04;6.57;;;2.27;;
13331;SDS011;6735;51.456;12.626;2023-04-03T06:38:30;5.63;;;2.60;;
13331;SDS011;6735;51.456;12.626;2023-04-03T06:40:57;5.93;;;2.40;;
13331;SDS011;6735;51.456;12.626;2023-04-03T06:43:23;5.20;;;2.10;;
13331;SDS011;6735;51.456;12.626;2023-04-03T06:45:49;3.87;;;2.40;;
13331;SDS011;6735;51.456;12.626;2023-04-03T06:48:14;4.37;;;2.53;;
13331;SDS011;6735;51.456;12.626;2023-04-03T06:50:40;4.57;;;2.37;;
13331;SDS011;6735;51.456;12.626;2023-04-03T06:53:05;3.57;;;2.07;;
13331;SDS011;6735;51.456;12.626;2023-04-03T06:55:32;2.77;;;2.13;;
13331;SDS011;6735;51.456;12.626;2023-04-03T06:57:58;6.10;;;2.20;;
13331;SDS011;6735;51.456;12.626;2023-04-03T07:00:24;6.30;;;2.50;;
13331;SDS011;6735;51.456;12.626;2023-04-03T07:02:49;6.00;;;2.33;;
13331;SDS011;6735;51.456;12.626;2023-04-03T07:05:15;5.77;;;2.43;;
13331;SDS011;6735;51.456;12.626;2023-04-03T07:07:40;5.93;;;2.00;;
13331;SDS011;6735;51.456;12.626;2023-04-03T07:10:06;3.77;;;2.10;;
13331;SDS011;6735;51.456;12.626;2023-04-03T07:12:32;4.93;;;2.20;;
13331;SDS011;6735;51.456;12.626;2023-04-03T07:14:58;5.10;;;2.00;;
13331;SDS011;6735;51.456;12.626;2023-04-03T07:17:23;5.17;;;2.60;;
13331;SDS011;6735;51.456;12.626;2023-04-03T07:19:50;3.50;;;2.03;;
13331;SDS011;6735;51.456;12.626;2023-04-03T07:22:15;4.33;;;2.20;;
13331;SDS011;6735;51.456;12.626;2023-04-03T07:24:41;4.03;;;2.20;;
13331;SDS011;6735;51.456;12.626;2023-04-03T07:27:07;3.93;;;2.30;;
13331;SDS011;6735;51.456;12.626;2023-04-03T07:29:33;2.90;;;2.00;;
13331;SDS011;6735;51.456;12.626;2023-04-03T07:31:59;3.50;;;2.10;;
13331;SDS011;6735;51.456;12.626;2023-04-03T07:34:24;3.37;;;2.17;;
13331;SDS011;6735;51.456;12.626;2023-04-03T07:36:50;6.87;;;2.20;;
13331;SDS011;6735;51.456;12.626;2023-04-03T07:39:15;4.77;;;2.17;;
13331;SDS011;6735;51.456;12.626;2023-04-03T07:41:41;5.13;;;2.53;;
13331;SDS011;6735;51.456;12.626;2023-04-03T07:44:06;4.57;;;2.20;;
13331;SDS011;6735;51.456;12.626;2023-04-03T07:46:34;4.80;;;2.30;;
13331;SDS011;6735;51.456;12.626;2023-04-03T07:49:00;3.30;;;2.10;;
13331;SDS011;6735;51.456;12.626;2023-04-03T07:51:25;3.13;;;2.20;;
13331;SDS011;6735;51.456;12.626;2023-04-03T07:53:51;3.07;;;2.23;;
13331;SDS011;6735;51.456;12.626;2023-04-03T07:56:17;5.33;;;2.50;;
13331;SDS011;6735;51.456;12.626;2023-04-03T07:58:42;3.07;;;2.13;;
13331;SDS011;6735;51.456;12.626;2023-04-03T08:01:08;4.37;;;2.63;;
13331;SDS011;6735;51.456;12.626;2023-04-03T08:03:33;5.43;;;2.00;;
13331;SDS011;6735;51.456;12.626;2023-04-03T08:06:03;2.43;;;1.90;;
13331;SDS011;6735;51.456;12.626;2023-04-03T08:08:29;3.07;;;1.87;;
13331;SDS011;6735;51.456;12.626;2023-04-03T08:10:55;5.43;;;2.27;;
13331;SDS011;6735;51.456;12.626;2023-04-03T08:13:22;3.93;;;2.10;;
13331;SDS011;6735;51.456;12.626;2023-04-03T08:15:48;5.23;;;2.20;;
13331;SDS011;6735;51.456;12.626;2023-04-03T08:18:14;4.13;;;2.43;;
13331;SDS011;6735;51.456;12.626;2023-04-03T08:20:40;5.30;;;2.00;;
13331;SDS011;6735;51.456;12.626;2023-04-03T08:23:06;5.20;;;2.20;;
13331;SDS011;6735;51.456;12.626;2023-04-03T08:25:33;3.40;;;1.90;;
13331;SDS011;6735;51.456;12.626;2023-04-03T08:35:42;4.17;;;2.30;;
13331;SDS011;6735;51.456;12.626;2023-04-03T08:38:08;4.27;;;2.10;;
13331;SDS011;6735;51.456;12.626;2023-04-03T08:40:34;4.37;;;2.10;;
13331;SDS011;6735;51.456;12.626;2023-04-03T08:45:55;2.93;;;1.87;;
13331;SDS011;6735;51.456;12.626;2023-04-03T09:11:46;10.00;;;3.00;;
13331;SDS011;6735;51.456;12.626;2023-04-03T09:14:23;4.63;;;2.30;;
13331;SDS011;6735;51.456;12.626;2023-04-03T09:16:59;3.53;;;2.20;;
13331;SDS011;6735;51.456;12.626;2023-04-03T09:24:42;6.57;;;2.53;;
13331;SDS011;6735;51.456;12.626;2023-04-03T09:27:10;2.83;;;2.10;;
13331;SDS011;6735;51.456;12.626;2023-04-03T09:29:42;6.17;;;2.47;;
13331;SDS011;6735;51.456;12.626;2023-04-03T09:32:27;4.63;;;1.90;;
13331;SDS011;6735;51.456;12.626;2023-04-03T09:34:56;2.63;;;1.93;;
13331;SDS011;6735;51.456;12.626;2023-04-03T09:37:44;3.57;;;2.00;;
13331;SDS011;6735;51.456;12.626;2023-04-03T09:40:27;3.43;;;2.20;;
13331;SDS011;6735;51.456;12.626;2023-04-03T09:42:56;4.37;;;2.30;;
13331;SDS011;6735;51.456;12.626;2023-04-03T09:45:27;4.03;;;1.90;;
13331;SDS011;6735;51.456;12.626;2023-04-03T09:48:06;5.03;;;2.10;;
13331;SDS011;6735;51.456;12.626;2023-04-03T09:53:26;2.77;;;2.00;;
13331;SDS011;6735;51.456;12.626;2023-04-03T09:58:46;2.57;;;1.93;;
13331;SDS011;6735;51.456;12.626;2023-04-03T10:04:07;2.63;;;2.00;;
13331;SDS011;6735;51.456;12.626;2023-04-03T10:06:39;3.87;;;2.00;;
13331;SDS011;6735;51.456;12.626;2023-04-03T10:09:21;6.73;;;2.00;;
13331;SDS011;6735;51.456;12.626;2023-04-03T10:12:08;3.37;;;2.10;;
13331;SDS011;6735;51.456;12.626;2023-04-03T10:14:38;2.20;;;2.00;;
13331;SDS011;6735;51.456;12.626;2023-04-03T10:20:03;3.80;;;2.40;;
13331;SDS011;6735;51.456;12.626;2023-04-03T10:23:12;2.60;;;1.97;;
13331;SDS011;6735;51.456;12.626;2023-04-03T10:25:59;3.97;;;2.17;;
13331;SDS011;6735;51.456;12.626;2023-04-03T10:31:50;3.40;;;2.00;;
13331;SDS011;6735;51.456;12.626;2023-04-03T10:34:24;4.53;;;2.20;;
13331;SDS011;6735;51.456;12.626;2023-04-03T10:42:50;3.50;;;2.17;;
13331;SDS011;6735;51.456;12.626;2023-04-03T10:45:46;4.40;;;2.20;;
13331;SDS011;6735;51.456;12.626;2023-04-03T10:48:31;3.40;;;1.93;;
13331;SDS011;6735;51.456;12.626;2023-04-03T10:51:22;3.23;;;1.90;;
13331;SDS011;6735;51.456;12.626;2023-04-03T10:56:30;2.87;;;1.97;;
13331;SDS011;6735;51.456;12.626;2023-04-03T10:59:07;4.63;;;2.17;;
13331;SDS011;6735;51.456;12.626;2023-04-03T11:01:59;3.77;;;1.97;;
13331;SDS011;6735;51.456;12.626;2023-04-03T11:04:29;2.83;;;2.10;;
13331;SDS011;6735;51.456;12.626;2023-04-03T11:07:42;3.40;;;2.30;;
13331;SDS011;6735;51.456;12.626;2023-04-03T11:09:51;2.90;;;1.60;;
13331;SDS011;6735;51.456;12.626;2023-04-03T11:12:28;4.03;;;2.50;;
13331;SDS011;6735;51.456;12.626;2023-04-03T11:15:11;4.47;;;2.40;;
13331;SDS011;6735;51.456;12.626;2023-04-03T11:17:41;3.97;;;1.90;;
13331;SDS011;6735;51.456;12.626;2023-04-03T11:20:30;3.00;;;2.00;;
13331;SDS011;6735;51.456;12.626;2023-04-03T11:25:41;3.83;;;2.03;;
13331;SDS011;6735;51.456;12.626;2023-04-03T11:28:12;5.57;;;2.13;;
13331;SDS011;6735;51.456;12.626;2023-04-03T11:30:44;2.83;;;2.10;;
13331;SDS011;6735;51.456;12.626;2023-04-03T11:33:15;3.10;;;1.97;;
13331;SDS011;6735;51.456;12.626;2023-04-03T11:36:00;3.13;;;1.93;;
13331;SDS011;6735;51.456;12.626;2023-04-03T11:38:37;2.97;;;2.00;;
13331;SDS011;6735;51.456;12.626;2023-04-03T11:41:08;3.20;;;2.20;;
13331;SDS011;6735;51.456;12.626;2023-04-03T11:43:39;3.20;;;2.03;;
13331;SDS011;6735;51.456;12.626;2023-04-03T11:46:06;3.87;;;2.10;;
13331;SDS011;6735;51.456;12.626;2023-04-03T11:51:02;4.43;;;1.80;;
13331;SDS011;6735;51.456;12.626;2023-04-03T11:53:52;5.00;;;1.87;;
13331;SDS011;6735;51.456;12.626;2023-04-03T12:04:22;3.50;;;1.87;;
13331;SDS011;6735;51.456;12.626;2023-04-03T12:07:10;2.10;;;1.90;;
13331;SDS011;6735;51.456;12.626;2023-04-03T12:12:21;2.83;;;1.90;;
13331;SDS011;6735;51.456;12.626;2023-04-03T12:14:55;2.20;;;1.70;;
13331;SDS011;6735;51.456;12.626;2023-04-03T12:17:36;3.47;;;1.87;;
13331;SDS011;6735;51.456;12.626;2023-04-03T12:20:08;3.10;;;1.70;;
13331;SDS011;6735;51.456;12.626;2023-04-03T12:23:07;3.37;;;1.93;;
13331;SDS011;6735;51.456;12.626;2023-04-03T12:26:18;2.60;;;1.80;;
13331;SDS011;6735;51.456;12.626;2023-04-03T12:28:46;3.27;;;1.93;;
13331;SDS011;6735;51.456;12.626;2023-04-03T12:31:14;4.63;;;2.60;;
13331;SDS011;6735;51.456;12.626;2023-04-03T12:33:59;4.63;;;2.33;;
13331;SDS011;6735;51.456;12.626;2023-04-03T12:42:22;3.67;;;2.13;;
13331;SDS011;6735;51.456;12.626;2023-04-03T12:45:14;3.50;;;2.10;;
13331;SDS011;6735;51.456;12.626;2023-04-03T12:47:44;4.63;;;2.23;;
13331;SDS011;6735;51.456;12.626;2023-04-03T12:52:56;2.47;;;2.27;;
13331;SDS011;6735;51.456;12.626;2023-04-03T12:55:26;4.73;;;2.40;;
13331;SDS011;6735;51.456;12.626;2023-04-03T12:57:52;3.90;;;2.00;;
13331;SDS011;6735;51.456;12.626;2023-04-03T13:02:51;2.70;;;2.43;;
13331;SDS011;6735;51.456;12.626;2023-04-03T13:05:18;3.63;;;2.20;;
13331;SDS011;6735;51.456;12.626;2023-04-03T13:07:45;2.67;;;2.07;;
13331;SDS011;6735;51.456;12.626;2023-04-03T13:10:17;5.47;;;2.23;;
13331;SDS011;6735;51.456;12.626;2023-04-03T13:12:55;2.80;;;2.17;;
13331;SDS011;6735;51.456;12.626;2023-04-03T13:15:40;4.07;;;2.20;;
13331;SDS011;6735;51.456;12.626;2023-04-03T13:18:24;4.23;;;2.50;;
13331;SDS011;6735;51.456;12.626;2023-04-03T13:20:52;4.33;;;2.10;;
13331;SDS011;6735;51.456;12.626;2023-04-03T13:23:21;2.80;;;2.10;;
13331;SDS011;6735;51.456;12.626;2023-04-03T13:25:48;2.47;;;2.03;;
13331;SDS011;6735;51.456;12.626;2023-04-03T13:28:15;4.03;;;1.93;;
13331;SDS011;6735;51.456;12.626;2023-04-03T13:30:59;3.40;;;2.00;;
13331;SDS011;6735;51.456;12.626;2023-04-03T13:33:27;3.67;;;2.13;;
13331;SDS011;6735;51.456;12.626;2023-04-03T13:36:04;2.67;;;1.87;;
13331;SDS011;6735;51.456;12.626;2023-04-03T13:38:42;4.23;;;2.07;;
13331;SDS011;6735;51.456;12.626;2023-04-03T13:43:57;2.93;;;2.20;;
13331;SDS011;6735;51.456;12.626;2023-04-03T13:49:46;3.63;;;2.20;;
13331;SDS011;6735;51.456;12.626;2023-04-03T13:52:30;1.87;;;1.70;;
13331;SDS011;6735;51.456;12.626;2023-04-03T13:55:02;2.73;;;2.03;;
13331;SDS011;6735;51.456;12.626;2023-04-03T13:57:48;1.93;;;1.80;;
13331;SDS011;6735;51.456;12.626;2023-04-03T14:03:20;2.40;;;1.80;;
13331;SDS011;6735;51.456;12.626;2023-04-03T14:05:51;3.33;;;1.87;;
13331;SDS011;6735;51.456;12.626;2023-04-03T14:08:18;2.83;;;1.87;;
13331;SDS011;6735;51.456;12.626;2023-04-03T14:10:44;4.77;;;2.00;;
13331;SDS011;6735;51.456;12.626;2023-04-03T14:13:11;3.03;;;2.10;;
13331;SDS011;6735;51.456;12.626;2023-04-03T14:15:38;3.60;;;2.10;;
13331;SDS011;6735;51.456;12.626;2023-04-03T14:18:04;2.47;;;2.07;;
13331;SDS011;6735;51.456;12.626;2023-04-03T14:20:29;2.43;;;2.23;;
13331;SDS011;6735;51.456;12.626;2023-04-03T14:22:55;3.27;;;2.50;;
13331;SDS011;6735;51.456;12.626;2023-04-03T14:25:21;3.93;;;2.40;;
13331;SDS011;6735;51.456;12.626;2023-04-03T14:27:51;3.27;;;2.37;;
13331;SDS011;6735;51.456;12.626;2023-04-03T14:30:19;3.50;;;2.13;;
13331;SDS011;6735;51.456;12.626;2023-04-03T14:32:50;2.77;;;2.00;;
13331;SDS011;6735;51.456;12.626;2023-04-03T14:35:16;2.70;;;2.17;;
13331;SDS011;6735;51.456;12.626;2023-04-03T14:37:43;3.10;;;2.07;;
13331;SDS011;6735;51.456;12.626;2023-04-03T14:40:11;2.73;;;2.53;;
13331;SDS011;6735;51.456;12.626;2023-04-03T14:42:39;3.17;;;2.10;;
13331;SDS011;6735;51.456;12.626;2023-04-03T14:45:05;4.90;;;2.60;;
13331;SDS011;6735;51.456;12.626;2023-04-03T14:47:33;2.20;;;2.00;;
13331;SDS011;6735;51.456;12.626;2023-04-03T14:50:06;2.47;;;2.20;;
13331;SDS011;6735;51.456;12.626;2023-04-03T14:52:36;2.83;;;2.10;;
13331;SDS011;6735;51.456;12.626;2023-04-03T14:55:02;4.03;;;1.97;;
13331;SDS011;6735;51.456;12.626;2023-04-03T14:57:30;3.07;;;2.50;;
13331;SDS011;6735;51.456;12.626;2023-04-03T14:59:57;3.47;;;3.10;;
13331;SDS011;6735;51.456;12.626;2023-04-03T15:02:33;2.80;;;2.50;;
13331;SDS011;6735;51.456;12.626;2023-04-03T15:05:01;3.10;;;2.10;;
13331;SDS011;6735;51.456;12.626;2023-04-03T15:07:29;3.93;;;2.80;;
13331;SDS011;6735;51.456;12.626;2023-04-03T15:10:00;3.20;;;2.80;;
13331;SDS011;6735;51.456;12.626;2023-04-03T15:12:31;3.03;;;2.00;;
13331;SDS011;6735;51.456;12.626;2023-04-03T15:14:57;3.37;;;2.00;;
13331;SDS011;6735;51.456;12.626;2023-04-03T15:17:22;4.93;;;2.10;;
13331;SDS011;6735;51.456;12.626;2023-04-03T15:19:48;3.20;;;2.47;;
13331;SDS011;6735;51.456;12.626;2023-04-03T15:22:14;2.70;;;2.50;;
13331;SDS011;6735;51.456;12.626;2023-04-03T15:24:41;2.10;;;2.00;;
13331;SDS011;6735;51.456;12.626;2023-04-03T15:27:07;2.30;;;2.20;;
13331;SDS011;6735;51.456;12.626;2023-04-03T15:29:33;2.60;;;2.27;;
13331;SDS011;6735;51.456;12.626;2023-04-03T15:31:58;2.20;;;2.07;;
13331;SDS011;6735;51.456;12.626;2023-04-03T15:34:24;2.70;;;2.17;;
13331;SDS011;6735;51.456;12.626;2023-04-03T15:36:49;2.93;;;2.30;;
13331;SDS011;6735;51.456;12.626;2023-04-03T15:39:17;4.33;;;2.90;;
13331;SDS011;6735;51.456;12.626;2023-04-03T15:41:42;3.70;;;2.30;;
13331;SDS011;6735;51.456;12.626;2023-04-03T15:44:10;2.50;;;2.30;;
13331;SDS011;6735;51.456;12.626;2023-04-03T15:46:37;3.13;;;2.27;;
13331;SDS011;6735;51.456;12.626;2023-04-03T15:49:03;3.30;;;2.43;;
13331;SDS011;6735;51.456;12.626;2023-04-03T15:51:29;4.03;;;2.57;;
13331;SDS011;6735;51.456;12.626;2023-04-03T15:53:55;3.33;;;2.37;;
13331;SDS011;6735;51.456;12.626;2023-04-03T15:56:20;3.00;;;2.70;;
13331;SDS011;6735;51.456;12.626;2023-04-03T15:58:46;3.47;;;2.40;;
13331;SDS011;6735;51.456;12.626;2023-04-03T16:01:11;2.97;;;2.10;;
13331;SDS011;6735;51.456;12.626;2023-04-03T16:03:36;2.50;;;2.30;;
13331;SDS011;6735;51.456;12.626;2023-04-03T16:06:09;4.43;;;2.33;;
13331;SDS011;6735;51.456;12.626;2023-04-03T16:08:38;2.87;;;2.27;;
13331;SDS011;6735;51.456;12.626;2023-04-03T16:11:05;3.77;;;2.50;;
13331;SDS011;6735;51.456;12.626;2023-04-03T16:13:30;2.73;;;2.10;;
13331;SDS011;6735;51.456;12.626;2023-04-03T16:15:56;2.33;;;2.13;;
13331;SDS011;6735;51.456;12.626;2023-04-03T16:18:21;3.03;;;2.10;;
13331;SDS011;6735;51.456;12.626;2023-04-03T16:20:47;2.53;;;2.33;;
13331;SDS011;6735;51.456;12.626;2023-04-03T16:23:13;3.00;;;2.40;;
13331;SDS011;6735;51.456;12.626;2023-04-03T16:25:38;2.70;;;2.50;;
13331;SDS011;6735;51.456;12.626;2023-04-03T16:28:04;2.17;;;1.97;;
13331;SDS011;6735;51.456;12.626;2023-04-03T16:30:30;2.37;;;2.17;;
13331;SDS011;6735;51.456;12.626;2023-04-03T16:32:56;3.50;;;2.00;;
13331;SDS011;6735;51.456;12.626;2023-04-03T16:35:22;2.80;;;2.20;;
13331;SDS011;6735;51.456;12.626;2023-04-03T16:37:47;4.17;;;2.30;;
13331;SDS011;6735;51.456;12.626;2023-04-03T16:40:13;2.53;;;2.20;;